Time;durP1;ratioP1;P1;durP2;ratioP2;P2;SDS_P1;SDS_P2;PMS_P1;PMS_P2;Temp;Humidity;BMP_temperature;BMP_pressure;BME280_temperature;BME280_humidity;BME280_pressure;Samples;Min_cycle;Max_cycle;Signal;HPM_P1;HPM_P2
2022/10/31 00:01:58;;;;;;;10.53;4.60;;;12.90;1.00;;;;;;5091955;28;20408;-51
2022/10/31 00:04:24;;;;;;;10.93;4.35;;;12.90;1.00;;;;;;5092980;28;20448;-51
2022/10/31 00:06:49;;;;;;;11.03;4.30;;;12.90;1.00;;;;;;5092142;28;20506;-54
2022/10/31 00:09:15;;;;;;;11.93;4.43;;;13.00;1.00;;;;;;5092289;28;20370;-51
2022/10/31 00:11:40;;;;;;;12.65;5.30;;;13.00;1.00;;;;;;5092874;28;20527;-51
2022/10/31 00:14:06;;;;;;;11.30;5.00;;;12.90;1.00;;;;;;5091800;28;20428;-51
2022/10/31 00:16:32;;;;;;;9.80;4.30;;;12.90;1.00;;;;;;5092378;28;20396;-51
2022/10/31 00:19:00;;;;;;;10.05;4.38;;;12.80;1.00;;;;;;5091548;28;20397;-51
2022/10/31 00:21:27;;;;;;;10.20;4.47;;;12.80;1.00;;;;;;5092814;28;20374;-51
2022/10/31 00:23:53;;;;;;;10.95;5.15;;;12.70;1.00;;;;;;5092126;28;20382;-55
2022/10/31 00:26:19;;;;;;;17.23;4.65;;;12.70;1.00;;;;;;5092289;28;20870;-51
2022/10/31 00:28:45;;;;;;;13.10;4.95;;;12.60;1.00;;;;;;5092177;28;20531;-51
2022/10/31 00:31:12;;;;;;;11.75;4.93;;;12.50;1.00;;;;;;5091494;28;20374;-51
2022/10/31 00:33:39;;;;;;;11.10;5.22;;;12.40;1.00;;;;;;5092830;28;20425;-51
2022/10/31 00:36:06;;;;;;;11.40;4.72;;;12.50;1.00;;;;;;5091351;28;20905;-51
2022/10/31 00:38:32;;;;;;;11.63;4.57;;;12.50;1.00;;;;;;5092072;28;20398;-51
2022/10/31 00:40:57;;;;;;;9.70;4.80;;;12.50;1.00;;;;;;5091136;28;20473;-51
2022/10/31 00:43:23;;;;;;;11.27;4.73;;;12.50;1.00;;;;;;5091719;28;20469;-51
2022/10/31 00:45:49;;;;;;;13.50;5.90;;;12.40;1.00;;;;;;5091579;28;20867;-52
2022/10/31 00:48:14;;;;;;;11.90;4.30;;;12.40;1.00;;;;;;5090707;28;20902;-51
2022/10/31 00:50:40;;;;;;;13.67;5.20;;;12.40;1.00;;;;;;5091935;28;20458;-52
2022/10/31 00:53:06;;;;;;;18.23;5.00;;;12.40;1.00;;;;;;5091133;28;20878;-51
2022/10/31 00:55:32;;;;;;;14.15;5.10;;;12.40;1.00;;;;;;5092146;28;20374;-50
2022/10/31 00:57:57;;;;;;;10.60;4.77;;;12.50;1.00;;;;;;5090758;28;20468;-51
2022/10/31 01:00:23;;;;;;;11.40;4.97;;;12.50;1.00;;;;;;5092094;28;20394;-51
2022/10/31 01:02:49;;;;;;;12.85;5.50;;;12.40;1.00;;;;;;5091272;28;20412;-51
2022/10/31 01:05:15;;;;;;;11.00;4.70;;;12.40;1.00;;;;;;5091023;28;20390;-51
2022/10/31 01:07:41;;;;;;;13.50;5.20;;;12.50;1.00;;;;;;5092084;28;20393;-50
2022/10/31 01:10:08;;;;;;;13.90;5.70;;;12.50;1.00;;;;;;5090314;28;20382;-51
2022/10/31 01:12:42;;;;;;;13.13;5.57;;;12.60;1.00;;;;;;5091490;28;20442;-51
2022/10/31 01:15:09;;;;;;;12.85;5.07;;;12.70;1.00;;;;;;5090930;28;20606;-51
2022/10/31 01:17:35;;;;;;;11.50;5.93;;;12.70;1.00;;;;;;5090961;28;20425;-51
2022/10/31 01:20:01;;;;;;;12.63;5.60;;;12.70;1.00;;;;;;5091017;28;20774;-51
2022/10/31 01:22:26;;;;;;;12.47;4.93;;;12.70;1.00;;;;;;5091047;28;20378;-51
2022/10/31 01:24:52;;;;;;;12.10;4.97;;;12.70;1.00;;;;;;5090641;28;20388;-55
2022/10/31 01:27:17;;;;;;;12.63;5.10;;;12.60;1.00;;;;;;5091192;28;20851;-53
2022/10/31 01:29:43;;;;;;;13.37;6.13;;;12.50;1.00;;;;;;5091328;28;20431;-51
2022/10/31 01:32:08;;;;;;;14.37;4.87;;;12.50;1.00;;;;;;5075031;28;20406;-51
2022/10/31 01:34:34;;;;;;;12.73;5.30;;;12.40;1.00;;;;;;5070510;28;20396;-52
2022/10/31 01:37:00;;;;;;;11.50;5.50;;;12.50;1.00;;;;;;5069618;28;20401;-52
2022/10/31 01:39:25;;;;;;;13.65;6.15;;;12.60;1.00;;;;;;5070556;28;20384;-53
2022/10/31 01:41:53;;;;;;;15.53;6.20;;;12.60;1.00;;;;;;5069871;28;20865;-51
2022/10/31 01:44:18;;;;;;;12.23;5.77;;;12.60;1.00;;;;;;5071202;28;20415;-51
2022/10/31 01:46:50;;;;;;;14.02;6.18;;;12.60;1.00;;;;;;5070867;28;20423;-51
2022/10/31 01:49:45;;;;;;;12.27;5.50;;;12.60;1.00;;;;;;5070914;28;20794;-51
2022/10/31 01:52:18;;;;;;;13.50;6.00;;;12.50;1.00;;;;;;5070114;28;20902;-50
2022/10/31 01:54:57;;;;;;;14.38;5.90;;;12.60;1.00;;;;;;5070607;28;20412;-51
2022/10/31 01:57:25;;;;;;;13.03;6.67;;;12.60;1.00;;;;;;5070829;28;20392;-50
2022/10/31 01:59:56;;;;;;;16.35;6.43;;;12.60;1.00;;;;;;5070098;28;20380;-53
2022/10/31 02:02:23;;;;;;;13.93;6.50;;;12.60;1.00;;;;;;5071244;28;20387;-52
2022/10/31 02:04:49;;;;;;;13.85;7.13;;;12.60;1.00;;;;;;5070774;28;20516;-51
2022/10/31 02:07:20;;;;;;;13.73;7.33;;;12.60;1.00;;;;;;5069829;28;20413;-51
2022/10/31 02:09:49;;;;;;;15.15;6.68;;;12.50;17.70;;;;;;5070231;28;20384;-51
2022/10/31 02:12:16;;;;;;;15.45;6.20;;;12.50;29.90;;;;;;5069546;28;20375;-52
2022/10/31 02:14:42;;;;;;;12.75;5.70;;;12.50;1.00;;;;;;5070480;28;20368;-52
2022/10/31 02:17:08;;;;;;;11.38;5.38;;;12.40;1.00;;;;;;5068594;28;20873;-51
2022/10/31 02:20:00;;;;;;;14.32;5.50;;;12.20;1.00;;;;;;5069912;28;20517;-51
2022/10/31 02:22:33;;;;;;;14.27;5.60;;;12.10;1.00;;;;;;5070410;28;20386;-51
2022/10/31 02:25:32;;;;;;;17.80;6.60;;;12.10;1.00;;;;;;5069792;28;20460;-54
2022/10/31 02:28:28;;;;;;;14.05;6.50;;;12.00;1.00;;;;;;5058267;28;20407;-51
2022/10/31 02:31:22;;;;;;;16.03;6.60;;;12.00;1.00;;;;;;5069244;28;20388;-55
2022/10/31 02:34:04;;;;;;;12.67;6.80;;;12.00;1.00;;;;;;5069879;28;20438;-51
2022/10/31 02:36:52;;;;;;;17.20;7.45;;;12.00;1.00;;;;;;5070316;28;20378;-51
2022/10/31 02:39:33;;;;;;;14.32;7.03;;;12.10;1.00;;;;;;5069900;28;20372;-51
2022/10/31 02:42:20;;;;;;;13.60;6.70;;;12.20;1.00;;;;;;5069033;28;20376;-51
2022/10/31 02:45:08;;;;;;;13.98;6.43;;;12.20;1.00;;;;;;5070229;28;20454;-51
2022/10/31 02:47:42;;;;;;;15.23;6.65;;;12.20;1.00;;;;;;5069847;28;20411;-51
2022/10/31 02:50:19;;;;;;;16.70;6.43;;;12.10;1.00;;;;;;5069389;28;20371;-50
2022/10/31 02:52:50;;;;;;;12.95;6.03;;;12.00;1.00;;;;;;5069275;28;20411;-52
2022/10/31 02:55:24;;;;;;;16.80;6.47;;;11.90;1.00;;;;;;5069281;28;20399;-51
2022/10/31 02:57:59;;;;;;;14.82;7.40;;;12.00;1.00;;;;;;5069634;28;20437;-51
2022/10/31 03:00:25;;;;;;;15.70;7.23;;;12.10;1.00;;;;;;5069861;28;20382;-51
2022/10/31 03:03:39;;;;;;;12.98;6.70;;;12.20;1.00;;;;;;5069732;28;20388;-51
2022/10/31 03:06:23;;;;;;;14.18;6.70;;;12.10;1.00;;;;;;4996694;28;20876;-51
2022/10/31 03:09:11;;;;;;;14.65;7.30;;;12.00;1.00;;;;;;5070050;28;20390;-51
2022/10/31 03:12:01;;;;;;;13.38;6.30;;;11.90;1.00;;;;;;5073045;28;20376;-51
2022/10/31 03:14:47;;;;;;;13.07;5.80;;;11.80;1.00;;;;;;5073436;28;20438;-51
2022/10/31 03:17:29;;;;;;;12.20;6.00;;;11.70;1.00;;;;;;5073007;28;20403;-51
2022/10/31 03:20:00;;;;;;;12.32;6.53;;;11.80;1.00;;;;;;5072693;28;20383;-55
2022/10/31 03:22:29;;;;;;;18.35;7.13;;;11.80;1.00;;;;;;5073316;28;20390;-50
2022/10/31 03:24:57;;;;;;;12.68;6.25;;;11.80;1.00;;;;;;5073057;28;20437;-54
2022/10/31 03:27:26;;;;;;;13.23;6.15;;;11.80;1.00;;;;;;5073452;28;20833;-50
2022/10/31 03:29:57;;;;;;;16.23;6.78;;;11.70;1.00;;;;;;5073298;28;20379;-51
2022/10/31 03:32:29;;;;;;;13.10;6.40;;;11.60;1.00;;;;;;5072846;28;20407;-54
2022/10/31 03:34:58;;;;;;;15.95;6.75;;;11.50;1.00;;;;;;5072410;28;20758;-51
2022/10/31 03:37:27;;;;;;;13.60;6.00;;;11.50;1.00;;;;;;5073382;28;20433;-51
2022/10/31 03:39:55;;;;;;;13.73;6.00;;;11.50;1.00;;;;;;5072629;28;20482;-54
2022/10/31 03:42:24;;;;;;;13.05;5.13;;;11.50;1.00;;;;;;5073056;28;20460;-50
2022/10/31 03:44:57;;;;;;;11.35;5.50;;;11.70;1.00;;;;;;5073007;28;20482;-50
2022/10/31 03:47:23;;;;;;;12.50;5.22;;;11.60;1.00;;;;;;5072592;28;20387;-53
2022/10/31 03:49:49;;;;;;;14.18;5.40;;;11.70;1.00;;;;;;5072663;28;20445;-53
2022/10/31 03:52:27;;;;;;;11.73;5.30;;;11.60;2.60;;;;;;5071939;28;20408;-53
2022/10/31 03:54:57;;;;;;;11.73;5.63;;;11.60;26.70;;;;;;5072716;28;20422;-56
2022/10/31 03:57:54;;;;;;;11.45;5.22;;;11.70;48.60;;;;;;5072826;28;20422;-53
2022/10/31 04:00:20;;;;;;;9.90;5.45;;;11.70;28.70;;;;;;5054754;28;20511;-53
2022/10/31 04:02:53;;;;;;;9.87;5.20;;;11.60;12.80;;;;;;5072023;28;20409;-53
2022/10/31 04:05:20;;;;;;;12.55;5.30;;;11.70;1.00;;;;;;5072185;28;20380;-53
2022/10/31 04:07:49;;;;;;;10.38;5.00;;;11.60;1.00;;;;;;5072834;28;20424;-54
2022/10/31 04:10:16;;;;;;;14.02;5.50;;;11.60;1.00;;;;;;5072171;28;20461;-53
2022/10/31 04:12:47;;;;;;;11.68;5.45;;;11.50;1.00;;;;;;5072511;28;20399;-53
2022/10/31 04:15:13;;;;;;;15.00;6.05;;;11.50;1.00;;;;;;5071562;28;21058;-53
2022/10/31 04:17:41;;;;;;;13.53;6.50;;;11.60;1.00;;;;;;5072216;28;20372;-53
2022/10/31 04:20:08;;;;;;;15.20;5.32;;;11.50;1.00;;;;;;5071822;28;20380;-53
2022/10/31 04:22:33;;;;;;;17.30;5.57;;;11.60;1.00;;;;;;5071859;28;20375;-53
2022/10/31 04:24:59;;;;;;;17.57;5.83;;;11.60;1.00;;;;;;5071756;28;20390;-53
2022/10/31 04:27:24;;;;;;;12.32;5.60;;;11.50;1.00;;;;;;5072460;28;20384;-53
2022/10/31 04:29:50;;;;;;;14.13;5.70;;;11.50;1.00;;;;;;5072213;28;20383;-53
2022/10/31 04:32:16;;;;;;;13.43;5.67;;;11.50;1.00;;;;;;5071058;28;20439;-53
2022/10/31 04:34:41;;;;;;;13.63;6.20;;;11.50;1.00;;;;;;5072171;28;20404;-53
2022/10/31 04:37:07;;;;;;;12.70;5.57;;;11.30;1.00;;;;;;5071470;28;20379;-53
2022/10/31 04:39:32;;;;;;;14.15;6.25;;;11.30;1.00;;;;;;5072142;28;20379;-53
2022/10/31 04:41:58;;;;;;;15.73;5.40;;;11.30;1.00;;;;;;5071776;28;20471;-53
2022/10/31 04:44:23;;;;;;;14.90;6.20;;;11.20;1.00;;;;;;5072481;28;20395;-53
2022/10/31 04:46:49;;;;;;;13.93;5.40;;;11.20;1.00;;;;;;5072224;28;20837;-53
2022/10/31 04:49:14;;;;;;;13.17;5.73;;;11.20;1.00;;;;;;5071383;28;20423;-53
2022/10/31 04:51:40;;;;;;;13.13;5.93;;;11.20;1.00;;;;;;5072141;28;20375;-53
2022/10/31 04:54:06;;;;;;;12.73;5.88;;;11.10;1.00;;;;;;5070519;28;20769;-53
2022/10/31 04:56:31;;;;;;;16.43;5.87;;;11.10;1.00;;;;;;5071749;28;20380;-53
2022/10/31 04:58:57;;;;;;;13.20;5.70;;;11.20;14.80;;;;;;5071596;28;20372;-53
2022/10/31 05:01:22;;;;;;;13.03;5.50;;;11.30;8.80;;;;;;5071533;28;20462;-53
2022/10/31 05:03:48;;;;;;;14.00;5.70;;;11.20;6.50;;;;;;5071319;28;20392;-53
2022/10/31 05:06:14;;;;;;;11.57;5.50;;;11.30;1.00;;;;;;5071004;28;20387;-53
2022/10/31 05:08:39;;;;;;;11.57;5.80;;;11.30;1.00;;;;;;5071779;28;20449;-53
2022/10/31 05:11:05;;;;;;;12.13;5.10;;;11.30;1.00;;;;;;5065770;28;20392;-53
2022/10/31 05:13:31;;;;;;;16.08;5.55;;;11.10;1.00;;;;;;5068443;28;20435;-53
2022/10/31 05:15:57;;;;;;;13.63;5.80;;;11.10;1.00;;;;;;5069581;28;20867;-53
2022/10/31 05:18:22;;;;;;;16.30;6.43;;;11.10;1.00;;;;;;5070928;28;20376;-53
2022/10/31 05:20:48;;;;;;;13.95;6.50;;;11.10;1.00;;;;;;5070977;28;20430;-53
2022/10/31 05:23:14;;;;;;;10.77;5.17;;;11.10;1.00;;;;;;5069693;28;20903;-53
2022/10/31 05:25:40;;;;;;;12.77;6.05;;;11.10;1.00;;;;;;5077869;28;21100;-53
2022/10/31 05:28:06;;;;;;;12.07;6.25;;;11.00;1.00;;;;;;5081522;28;20376;-53
2022/10/31 05:30:32;;;;;;;15.27;6.03;;;11.00;1.00;;;;;;5082178;28;20389;-53
2022/10/31 05:32:59;;;;;;;13.70;6.00;;;10.90;12.70;;;;;;5085265;28;20436;-57
2022/10/31 05:35:27;;;;;;;11.40;5.53;;;11.00;27.80;;;;;;5073774;28;20406;-53
2022/10/31 05:37:53;;;;;;;12.80;6.40;;;11.00;5.90;;;;;;5083396;28;20400;-53
2022/10/31 05:40:20;;;;;;;19.35;7.32;;;11.10;2.90;;;;;;5070357;28;20388;-53
2022/10/31 05:42:46;;;;;;;16.25;6.18;;;11.10;1.00;;;;;;5070162;28;20731;-53
2022/10/31 05:45:14;;;;;;;12.97;5.47;;;11.00;1.00;;;;;;5070426;28;20397;-53
2022/10/31 05:47:40;;;;;;;16.98;6.20;;;11.00;1.00;;;;;;5051566;28;20739;-54
2022/10/31 05:50:07;;;;;;;11.27;5.40;;;10.90;1.00;;;;;;5067111;28;20402;-53
2022/10/31 05:52:32;;;;;;;13.18;5.95;;;10.90;1.00;;;;;;5090878;28;20378;-53
2022/10/31 05:54:58;;;;;;;11.53;5.43;;;10.90;1.00;;;;;;5083454;28;20495;-57
2022/10/31 05:57:24;;;;;;;16.33;6.80;;;11.00;1.00;;;;;;5049514;28;20412;-53
2022/10/31 05:59:52;;;;;;;16.37;6.47;;;11.00;1.00;;;;;;5049941;28;20386;-55
2022/10/31 06:02:18;;;;;;;13.65;5.57;;;11.00;1.00;;;;;;5064202;28;20395;-53
2022/10/31 06:04:44;;;;;;;11.60;5.90;;;11.00;1.00;;;;;;5061979;28;20522;-53
2022/10/31 06:07:10;;;;;;;13.02;5.82;;;11.10;1.00;;;;;;5049845;28;20404;-54
2022/10/31 06:09:35;;;;;;;16.00;6.20;;;11.00;1.00;;;;;;5054005;28;20410;-53
2022/10/31 06:12:01;;;;;;;11.87;5.50;;;11.00;1.00;;;;;;5069492;28;20470;-53
2022/10/31 06:14:26;;;;;;;13.90;5.40;;;10.80;1.00;;;;;;5060155;28;20424;-53
2022/10/31 06:16:54;;;;;;;12.40;5.50;;;10.90;1.00;;;;;;5059472;28;20814;-55
2022/10/31 06:19:19;;;;;;;11.20;4.97;;;10.90;1.00;;;;;;5064068;28;20466;-56
2022/10/31 06:21:45;;;;;;;13.97;5.50;;;11.00;31.80;;;;;;5062035;28;20885;-53
2022/10/31 06:24:11;;;;;;;12.57;5.70;;;11.20;19.60;;;;;;5059195;28;20412;-53
2022/10/31 06:26:36;;;;;;;16.10;6.22;;;11.30;1.00;;;;;;5060792;28;20391;-53
2022/10/31 06:29:02;;;;;;;13.30;5.90;;;11.30;1.00;;;;;;5068109;28;20382;-53
2022/10/31 06:31:28;;;;;;;16.17;5.55;;;11.30;1.00;;;;;;5081113;28;20407;-53
2022/10/31 06:33:53;;;;;;;12.33;6.03;;;11.30;1.00;;;;;;5067376;28;20419;-53
2022/10/31 06:36:19;;;;;;;13.17;5.70;;;11.30;1.00;;;;;;5068704;28;20568;-54
2022/10/31 06:38:45;;;;;;;12.55;5.78;;;11.40;1.00;;;;;;5070089;28;20394;-55
2022/10/31 06:41:10;;;;;;;14.20;5.30;;;11.40;1.00;;;;;;5069964;28;20437;-54
2022/10/31 06:43:36;;;;;;;12.88;5.93;;;11.40;1.00;;;;;;5086955;28;20387;-53
2022/10/31 06:46:03;;;;;;;12.30;5.77;;;11.40;1.00;;;;;;5069590;28;20412;-53
2022/10/31 06:48:28;;;;;;;13.05;6.88;;;11.50;1.00;;;;;;5069473;28;20411;-53
2022/10/31 06:50:58;;;;;;;14.57;5.80;;;11.60;1.00;;;;;;5070151;28;20840;-53
2022/10/31 06:53:24;;;;;;;12.52;5.45;;;11.70;1.00;;;;;;5069833;28;20430;-53
2022/10/31 06:55:49;;;;;;;17.47;5.77;;;11.90;1.00;;;;;;5069337;28;20737;-51
2022/10/31 06:58:15;;;;;;;15.30;5.80;;;11.90;1.00;;;;;;5069520;28;20443;-51
2022/10/31 07:00:40;;;;;;;17.20;6.13;;;12.10;1.00;;;;;;5070087;28;20372;-50
2022/10/31 07:03:10;;;;;;;14.15;6.30;;;12.10;1.00;;;;;;5068248;28;20682;-53
2022/10/31 07:05:36;;;;;;;12.77;6.10;;;12.30;1.00;;;;;;5062474;28;20404;-51
2022/10/31 07:08:08;;;;;;;13.57;5.83;;;12.40;1.00;;;;;;5069237;28;20411;-50
2022/10/31 07:10:35;;;;;;;14.13;5.93;;;12.80;1.00;;;;;;5069436;28;20406;-51
2022/10/31 07:13:04;;;;;;;13.77;6.28;;;13.20;1.00;;;;;;5069144;28;20404;-53
2022/10/31 07:15:33;;;;;;;12.90;6.30;;;13.90;99.90;;;;;;5069257;28;20383;-53
2022/10/31 07:18:03;;;;;;;14.13;6.20;;;14.80;1.00;;;;;;5068651;28;20379;-58
2022/10/31 07:20:29;;;;;;;10.27;5.38;;;15.50;99.90;;;;;;5068828;28;20729;-53
2022/10/31 07:22:55;;;;;;;11.67;5.30;;;16.20;99.90;;;;;;5069788;28;20391;-53
2022/10/31 07:25:21;;;;;;;14.25;5.70;;;16.80;99.90;;;;;;5069107;28;20383;-53
2022/10/31 07:27:47;;;;;;;11.80;5.13;;;17.10;1.00;;;;;;5069276;28;20380;-51
2022/10/31 07:30:14;;;;;;;12.18;6.03;;;17.20;99.90;;;;;;5068416;28;20503;-51
2022/10/31 07:32:40;;;;;;;15.90;5.90;;;17.20;99.90;;;;;;5068677;28;20948;-51
2022/10/31 07:35:11;;;;;;;13.57;5.20;;;17.60;99.90;;;;;;5068148;28;20453;-51
2022/10/31 07:37:37;;;;;;;13.57;5.53;;;17.70;94.40;;;;;;5069348;28;20390;-52
2022/10/31 07:40:04;;;;;;;13.77;5.00;;;18.00;1.00;;;;;;5068249;28;20820;-51
2022/10/31 07:42:38;;;;;;;14.05;5.00;;;17.90;1.00;;;;;;5068657;28;20378;-52
2022/10/31 07:45:05;;;;;;;10.75;5.32;;;18.20;1.00;;;;;;5034603;28;20487;-51
2022/10/31 07:47:41;;;;;;;12.32;5.30;;;18.30;1.00;;;;;;5069013;28;20384;-51
2022/10/31 07:50:09;;;;;;;12.60;5.03;;;18.30;1.00;;;;;;5068952;28;20899;-51
2022/10/31 07:52:35;;;;;;;11.15;5.38;;;18.40;1.00;;;;;;5068731;28;20368;-51
2022/10/31 07:55:00;;;;;;;12.50;5.57;;;18.30;1.00;;;;;;5068655;28;20395;-55
2022/10/31 07:57:26;;;;;;;11.00;5.20;;;18.30;1.00;;;;;;5070884;28;20403;-52
2022/10/31 07:59:52;;;;;;;12.77;5.40;;;18.30;1.00;;;;;;5072412;28;20930;-51
2022/10/31 08:02:17;;;;;;;13.45;5.15;;;18.10;1.00;;;;;;5072202;28;20392;-52
2022/10/31 08:04:43;;;;;;;11.82;5.13;;;18.30;1.00;;;;;;5073021;28;20488;-52
2022/10/31 08:07:08;;;;;;;15.97;5.10;;;18.60;1.00;;;;;;5071510;28;20384;-52
2022/10/31 08:09:34;;;;;;;13.03;5.20;;;19.10;1.00;;;;;;5072122;28;20372;-52
2022/10/31 08:12:01;;;;;;;12.40;5.50;;;19.40;1.00;;;;;;5072348;28;20379;-56
2022/10/31 08:14:27;;;;;;;12.60;5.05;;;19.60;1.00;;;;;;5072122;28;20415;-52
2022/10/31 08:16:53;;;;;;;10.23;5.03;;;19.80;1.00;;;;;;5072386;28;20498;-52
2022/10/31 08:19:19;;;;;;;15.82;5.60;;;19.90;1.00;;;;;;5071584;28;20841;-52
2022/10/31 08:21:44;;;;;;;12.65;5.68;;;19.80;1.00;;;;;;5071643;28;20391;-52
2022/10/31 08:24:10;;;;;;;13.93;5.60;;;19.40;1.00;;;;;;5071754;28;20386;-52
2022/10/31 08:26:35;;;;;;;11.45;5.50;;;19.20;1.00;;;;;;5072028;28;20386;-52
2022/10/31 08:29:01;;;;;;;13.90;6.00;;;19.20;1.00;;;;;;5071454;28;20890;-53
2022/10/31 08:31:27;;;;;;;14.90;5.60;;;19.20;1.00;;;;;;5071534;28;20387;-52
2022/10/31 08:33:53;;;;;;;14.38;5.20;;;19.30;1.00;;;;;;5072021;28;20414;-54
2022/10/31 08:36:20;;;;;;;14.60;5.70;;;20.00;1.00;;;;;;5071335;28;20384;-55
2022/10/31 08:38:47;;;;;;;12.88;5.68;;;20.30;1.00;;;;;;5072365;28;20387;-55
2022/10/31 08:41:12;;;;;;;13.90;5.72;;;20.30;1.00;;;;;;5071539;28;20390;-52
2022/10/31 08:43:38;;;;;;;10.87;5.40;;;20.30;1.00;;;;;;5071463;28;20388;-53
2022/10/31 08:46:04;;;;;;;12.90;5.50;;;20.40;1.00;;;;;;5071147;28;20853;-53
2022/10/31 08:48:30;;;;;;;13.40;6.00;;;20.30;1.00;;;;;;5071634;28;20376;-52
2022/10/31 08:50:59;;;;;;;11.43;5.70;;;20.00;1.00;;;;;;5071775;28;20694;-52
2022/10/31 08:53:26;;;;;;;11.30;5.18;;;19.70;1.00;;;;;;5071835;28;20521;-52
2022/10/31 08:55:55;;;;;;;11.90;5.80;;;19.40;1.00;;;;;;5071661;28;20376;-52
2022/10/31 08:58:20;;;;;;;12.00;6.23;;;18.80;1.00;;;;;;5070953;28;20645;-52
2022/10/31 09:00:48;;;;;;;12.70;5.72;;;18.60;1.00;;;;;;5071581;28;20471;-52
2022/10/31 09:03:24;;;;;;;13.70;5.60;;;18.30;1.00;;;;;;5070797;28;20384;-52
2022/10/31 09:05:51;;;;;;;12.02;5.38;;;18.00;1.00;;;;;;5071478;28;20530;-52
2022/10/31 09:08:16;;;;;;;14.57;6.10;;;17.70;1.00;;;;;;5070029;28;20384;-52
2022/10/31 09:10:43;;;;;;;11.40;5.30;;;17.70;1.00;;;;;;5071597;28;20383;-52
2022/10/31 09:13:10;;;;;;;13.65;6.28;;;17.80;1.00;;;;;;5070349;28;20774;-52
2022/10/31 09:15:38;;;;;;;15.65;5.85;;;17.80;1.00;;;;;;5071402;28;20392;-53
2022/10/31 09:18:08;;;;;;;13.38;5.57;;;17.80;1.00;;;;;;5070704;28;20482;-52
2022/10/31 09:20:36;;;;;;;14.80;5.63;;;18.30;1.00;;;;;;5053725;28;20392;-52
2022/10/31 09:23:05;;;;;;;12.30;5.70;;;18.60;1.00;;;;;;5070173;28;20433;-53
2022/10/31 09:25:33;;;;;;;15.23;5.60;;;19.00;1.00;;;;;;5071067;28;20736;-53
2022/10/31 09:28:00;;;;;;;14.30;6.00;;;19.40;1.00;;;;;;5053188;28;20376;-57
2022/10/31 09:30:28;;;;;;;12.80;5.83;;;19.50;1.00;;;;;;5071077;28;20372;-52
2022/10/31 09:32:58;;;;;;;12.43;5.70;;;19.80;1.00;;;;;;5070244;28;20477;-52
2022/10/31 09:35:25;;;;;;;14.33;5.30;;;20.00;1.00;;;;;;5070414;28;20918;-54
2022/10/31 09:38:05;;;;;;;14.48;5.70;;;20.20;1.00;;;;;;5070863;28;20371;-52
2022/10/31 09:40:35;;;;;;;10.40;4.82;;;20.20;1.00;;;;;;5070990;28;20399;-53
2022/10/31 09:43:10;;;;;;;13.57;5.90;;;20.40;1.00;;;;;;5070023;28;20428;-56
2022/10/31 09:45:45;;;;;;;13.75;5.93;;;20.70;1.00;;;;;;5053233;28;20596;-53
2022/10/31 09:48:48;;;;;;;13.65;5.65;;;20.80;1.00;;;;;;5069983;28;20422;-52
2022/10/31 09:51:22;;;;;;;13.30;5.72;;;20.80;1.00;;;;;;5070340;28;20933;-52
2022/10/31 09:54:15;;;;;;;11.27;5.30;;;21.00;99.90;;;;;;5069963;28;21023;-55
2022/10/31 09:56:41;;;;;;;11.80;5.60;;;21.50;99.90;;;;;;5070616;28;20372;-53
2022/10/31 09:59:32;;;;;;;13.38;6.45;;;21.30;99.90;;;;;;5069799;28;20388;-53
2022/10/31 10:02:23;;;;;;;12.30;5.70;;;21.50;99.90;;;;;;5069267;28;20473;-55
2022/10/31 10:04:58;;;;;;;13.65;6.00;;;21.50;99.90;;;;;;5065608;28;20479;-54
2022/10/31 10:07:32;;;;;;;11.88;5.70;;;21.10;99.90;;;;;;5067978;28;20400;-52
2022/10/31 10:10:01;;;;;;;14.15;5.90;;;20.30;99.90;;;;;;5069916;28;20816;-51
2022/10/31 10:13:03;;;;;;;14.27;5.85;;;19.80;99.90;;;;;;5058927;28;20389;-52
2022/10/31 10:15:31;;;;;;;13.93;5.18;;;19.60;99.90;;;;;;5050103;28;20433;-52
2022/10/31 10:18:03;;;;;;;11.05;5.35;;;19.60;99.90;;;;;;5049980;28;20423;-52
2022/10/31 10:20:32;;;;;;;17.58;5.80;;;19.60;99.90;;;;;;5049181;28;20385;-52
2022/10/31 10:23:00;;;;;;;13.88;5.78;;;19.80;99.90;;;;;;5051078;28;20393;-53
2022/10/31 10:25:36;;;;;;;17.13;6.15;;;19.90;99.90;;;;;;5066194;28;20392;-52
2022/10/31 10:28:16;;;;;;;14.00;5.40;;;20.00;99.90;;;;;;5066638;28;20479;-57
2022/10/31 10:30:44;;;;;;;11.85;5.50;;;19.70;99.90;;;;;;5068902;28;20738;-52
2022/10/31 10:33:20;;;;;;;12.85;5.70;;;19.70;99.90;;;;;;5068285;28;20445;-53
2022/10/31 10:35:53;;;;;;;14.75;5.90;;;19.40;99.90;;;;;;5069379;28;20474;-53
2022/10/31 10:38:29;;;;;;;12.65;5.80;;;19.50;1.00;;;;;;5068427;28;21089;-53
2022/10/31 10:40:55;;;;;;;13.27;5.80;;;19.60;99.90;;;;;;5068020;28;20407;-52
2022/10/31 10:43:32;;;;;;;14.88;6.10;;;19.90;99.90;;;;;;5063917;28;21275;-52
2022/10/31 10:49:18;;;;;;;15.48;6.40;;;20.20;99.90;;;;;;5064070;28;20402;-56
2022/10/31 10:51:46;;;;;;;11.25;6.13;;;20.20;99.90;;;;;;5068815;28;20396;-52
2022/10/31 10:54:17;;;;;;;12.67;5.40;;;20.20;99.90;;;;;;5068034;28;20407;-52
2022/10/31 10:57:11;;;;;;;14.30;6.60;;;19.70;99.90;;;;;;5068283;28;20480;-52
2022/10/31 10:59:37;;;;;;;18.52;6.13;;;19.60;99.90;;;;;;5064804;28;20405;-52
2022/10/31 11:02:13;;;;;;;12.48;6.00;;;19.50;1.00;;;;;;5067128;28;20741;-57
2022/10/31 11:04:40;;;;;;;16.20;6.80;;;19.60;1.00;;;;;;5068695;28;20498;-52
2022/10/31 11:07:09;;;;;;;14.95;6.50;;;19.50;1.00;;;;;;5063205;28;20753;-56
2022/10/31 11:09:35;;;;;;;13.47;6.40;;;19.40;1.00;;;;;;5050200;28;20817;-53
2022/10/31 11:12:07;;;;;;;14.55;6.18;;;19.40;1.00;;;;;;5068924;28;20372;-52
2022/10/31 11:14:44;;;;;;;13.13;6.22;;;19.30;1.00;;;;;;5068497;28;20770;-53
2022/10/31 11:17:18;;;;;;;15.40;6.82;;;19.10;1.00;;;;;;5066342;28;20387;-53
2022/10/31 11:19:43;;;;;;;13.88;6.30;;;19.20;1.00;;;;;;5069055;28;20450;-52
2022/10/31 11:22:16;;;;;;;13.18;6.05;;;19.20;1.00;;;;;;5068237;28;20396;-52
2022/10/31 11:24:42;;;;;;;16.10;6.35;;;19.50;1.00;;;;;;5067716;28;20403;-52
2022/10/31 11:27:19;;;;;;;14.40;6.40;;;19.80;1.00;;;;;;5065405;28;20938;-53
2022/10/31 11:29:45;;;;;;;13.00;7.00;;;20.00;1.00;;;;;;5067006;28;20384;-53
2022/10/31 11:32:23;;;;;;;16.63;6.73;;;20.20;1.00;;;;;;5069537;28;20406;-53
2022/10/31 11:34:54;;;;;;;14.82;6.03;;;20.10;1.00;;;;;;5070755;28;20416;-52
2022/10/31 11:37:26;;;;;;;13.48;6.43;;;19.80;1.00;;;;;;5069056;28;20471;-52
2022/10/31 11:39:55;;;;;;;15.20;5.70;;;19.70;1.00;;;;;;5072372;28;20383;-52
2022/10/31 11:42:36;;;;;;;16.42;7.18;;;19.70;1.00;;;;;;5068923;28;20416;-52
2022/10/31 11:45:13;;;;;;;12.65;6.25;;;19.70;1.00;;;;;;5069517;28;20391;-57
2022/10/31 11:47:43;;;;;;;16.48;6.90;;;19.70;1.00;;;;;;5072587;28;20406;-52
2022/10/31 11:50:11;;;;;;;13.32;6.03;;;19.50;1.00;;;;;;5071384;28;20392;-52
2022/10/31 11:52:39;;;;;;;15.10;6.35;;;19.40;1.00;;;;;;5072249;28;20386;-52
2022/10/31 11:55:15;;;;;;;15.73;6.60;;;19.50;1.00;;;;;;5069279;28;20392;-57
2022/10/31 11:57:50;;;;;;;12.97;6.67;;;19.60;1.00;;;;;;5068386;28;20387;-52
2022/10/31 12:00:29;;;;;;;12.05;6.22;;;19.80;1.00;;;;;;5068085;28;20380;-52
2022/10/31 12:03:22;;;;;;;14.07;5.93;;;19.90;1.00;;;;;;5071542;28;20772;-54
2022/10/31 12:06:17;;;;;;;16.70;6.00;;;19.80;1.00;;;;;;5070334;28;20499;-52
2022/10/31 12:08:44;;;;;;;12.70;6.47;;;19.80;1.00;;;;;;5069559;28;20392;-52
2022/10/31 12:11:34;;;;;;;12.98;6.43;;;19.70;1.00;;;;;;5070779;28;20420;-52
2022/10/31 12:14:18;;;;;;;16.58;7.10;;;19.90;1.00;;;;;;5068728;28;20419;-52
2022/10/31 12:17:05;;;;;;;19.98;6.80;;;19.90;99.90;;;;;;5069361;28;20705;-52
2022/10/31 12:19:47;;;;;;;14.67;6.67;;;19.80;99.90;;;;;;5069932;28;20544;-52
2022/10/31 12:22:27;;;;;;;16.10;6.35;;;19.90;99.90;;;;;;5065606;28;20387;-52
2022/10/31 12:25:10;;;;;;;14.20;6.10;;;19.90;99.90;;;;;;5068605;28;20424;-52
2022/10/31 12:28:15;;;;;;;11.98;5.75;;;20.10;99.90;;;;;;5066360;28;20392;-52
2022/10/31 12:30:51;;;;;;;12.27;6.10;;;20.30;99.90;;;;;;5042538;28;20409;-51
2022/10/31 12:33:23;;;;;;;16.15;6.30;;;20.30;99.90;;;;;;5066286;28;20423;-52
2022/10/31 12:36:05;;;;;;;15.40;7.07;;;20.50;99.90;;;;;;5065743;28;20764;-52
2022/10/31 12:38:47;;;;;;;15.60;5.90;;;20.60;99.90;;;;;;5051548;28;20381;-54
2022/10/31 12:41:22;;;;;;;11.43;5.82;;;20.60;99.90;;;;;;5067675;28;20395;-53
2022/10/31 12:44:18;;;;;;;14.98;6.03;;;20.60;99.90;;;;;;5050110;28;20443;-54
2022/10/31 12:47:13;;;;;;;15.25;6.35;;;20.70;99.90;;;;;;5070022;28;20382;-52
2022/10/31 12:50:21;;;;;;;15.15;5.95;;;20.70;99.90;;;;;;5071765;28;20698;-52
2022/10/31 12:53:21;;;;;;;13.15;6.20;;;20.70;99.90;;;;;;5072189;28;20372;-52
2022/10/31 12:56:02;;;;;;;14.70;5.40;;;20.60;99.90;;;;;;5071602;28;20429;-52
2022/10/31 12:58:45;;;;;;;18.23;5.90;;;20.50;99.90;;;;;;5071052;28;20475;-52
2022/10/31 13:01:20;;;;;;;17.13;6.43;;;20.30;99.90;;;;;;5066108;28;20451;-54
2022/10/31 13:03:56;;;;;;;16.02;6.00;;;20.10;99.90;;;;;;5066822;28;20408;-52
2022/10/31 13:06:33;;;;;;;27.70;8.10;;;20.10;99.90;;;;;;5066413;28;20407;-52
2022/10/31 13:09:10;;;;;;;15.63;6.65;;;20.00;99.90;;;;;;5067270;28;21029;-53